createdAt,value
2023-05-10T00:00:08.451Z,67
2023-05-10T00:01:08.628Z,67
2023-05-10T00:02:09.012Z,67
2023-05-10T00:03:08.495Z,67
2023-05-10T00:04:08.624Z,67
2023-05-10T00:05:08.813Z,67
2023-05-10T00:06:08.805Z,67
2023-05-10T00:07:09.042Z,67
2023-05-10T00:08:08.367Z,67
2023-05-10T00:10:08.199Z,68
2023-05-10T00:11:08.340Z,68
2023-05-10T00:12:07.301Z,68
2023-05-10T00:13:08.453Z,68
2023-05-10T00:14:08.544Z,68
2023-05-10T00:15:08.854Z,68
2023-05-10T00:16:09.067Z,68
2023-05-10T00:17:08.216Z,68
2023-05-10T00:18:08.638Z,68
2023-05-10T00:19:08.800Z,68
2023-05-10T00:20:08.842Z,68
2023-05-10T00:21:08.577Z,68
2023-05-10T00:22:08.979Z,69
2023-05-10T00:23:09.059Z,69
2023-05-10T00:24:08.373Z,69
2023-05-10T00:25:08.527Z,69
2023-05-10T00:26:08.779Z,69
2023-05-10T00:27:08.902Z,69
2023-05-10T00:28:08.380Z,69
2023-05-10T00:29:08.582Z,69
2023-05-10T00:30:08.890Z,69
2023-05-10T00:33:08.286Z,69
2023-05-10T00:34:08.538Z,69
2023-05-10T00:35:08.577Z,70
2023-05-10T00:36:08.833Z,70
2023-05-10T00:37:08.916Z,70
2023-05-10T00:38:07.724Z,70
2023-05-10T00:39:09.091Z,70
2023-05-10T00:40:08.184Z,70
2023-05-10T00:44:08.210Z,70
2023-05-10T00:45:08.772Z,70
2023-05-10T00:46:09.029Z,70
2023-05-10T00:47:09.101Z,70
2023-05-10T00:48:08.259Z,70
2023-05-10T00:52:08.196Z,71
2023-05-10T00:53:08.254Z,71
2023-05-10T00:54:08.829Z,71
2023-05-10T00:55:08.895Z,71
2023-05-10T00:56:08.133Z,71
2023-05-10T00:57:08.774Z,71
2023-05-10T00:58:08.836Z,71
2023-05-10T00:59:09.216Z,72
2023-05-10T01:00:08.187Z,72
2023-05-10T01:01:08.624Z,72
2023-05-10T01:02:08.843Z,72
2023-05-10T01:03:09.413Z,71
2023-05-10T01:07:08.344Z,71
2023-05-10T01:08:08.773Z,71
2023-05-10T01:09:08.795Z,71
2023-05-10T01:10:08.185Z,71
2023-05-10T01:11:08.380Z,72
2023-05-10T01:12:09.093Z,72
2023-05-10T01:13:09.018Z,72
2023-05-10T01:14:08.345Z,72
2023-05-10T01:15:08.575Z,72
2023-05-10T01:16:08.893Z,72
2023-05-10T01:17:08.794Z,72
2023-05-10T01:18:09.106Z,72
2023-05-10T01:19:09.237Z,73
2023-05-10T01:23:08.277Z,73
2023-05-10T01:24:08.613Z,73
2023-05-10T01:25:08.976Z,73
2023-05-10T01:26:09.026Z,73
2023-05-10T01:27:08.202Z,74
2023-05-10T01:28:08.588Z,74
2023-05-10T01:29:08.899Z,74
2023-05-10T01:30:24.018Z,74
2023-05-10T01:32:08.682Z,75
2023-05-10T01:33:08.867Z,75
2023-05-10T01:34:08.882Z,75
2023-05-10T01:37:07.705Z,76
2023-05-10T01:38:08.605Z,76
2023-05-10T01:39:08.544Z,76
2023-05-10T01:40:08.861Z,76
2023-05-10T01:41:08.214Z,76
2023-05-10T01:42:08.508Z,76
2023-05-10T01:43:08.586Z,76
2023-05-10T01:44:09.070Z,77
2023-05-10T01:45:08.325Z,77
2023-05-10T01:46:08.452Z,77
2023-05-10T01:47:08.864Z,77
2023-05-10T01:48:09.323Z,77
2023-05-10T01:49:08.175Z,78
2023-05-10T01:50:08.574Z,78
2023-05-10T01:51:09.059Z,78
2023-05-10T01:52:08.304Z,78
2023-05-10T01:53:08.797Z,78
2023-05-10T01:56:08.562Z,78
2023-05-10T01:57:08.805Z,78
2023-05-10T02:00:08.466Z,78
2023-05-10T02:01:09.484Z,78
2023-05-10T02:02:08.929Z,79
2023-05-10T02:03:08.705Z,79
2023-05-10T02:06:08.153Z,79
2023-05-10T02:07:08.477Z,79
2023-05-10T02:12:08.762Z,79
2023-05-10T02:13:09.184Z,80
2023-05-10T02:16:08.814Z,80
2023-05-10T02:19:08.304Z,80
2023-05-10T02:20:08.325Z,80
2023-05-10T02:21:08.773Z,80
2023-05-10T02:22:08.873Z,80
2023-05-10T02:23:08.774Z,80
2023-05-10T02:24:08.904Z,80
2023-05-10T02:25:09.273Z,80
2023-05-10T02:26:08.458Z,80
2023-05-10T02:27:08.740Z,80
2023-05-10T02:28:08.940Z,80
2023-05-10T02:29:08.284Z,80
2023-05-10T02:30:07.444Z,81
2023-05-10T02:31:08.770Z,81
2023-05-10T02:32:09.195Z,81
2023-05-10T02:33:08.193Z,81
2023-05-10T02:36:08.756Z,81
2023-05-10T02:37:08.992Z,81
2023-05-10T02:38:09.289Z,81
2023-05-10T02:39:08.751Z,81
2023-05-10T02:40:08.754Z,81
2023-05-10T02:41:08.959Z,82
2023-05-10T02:42:08.886Z,82
2023-05-10T02:43:08.390Z,82
2023-05-10T02:44:08.740Z,82
2023-05-10T02:49:08.381Z,82
2023-05-10T02:50:08.435Z,82
2023-05-10T02:51:08.794Z,82
2023-05-10T02:52:09.169Z,82
2023-05-10T02:53:08.069Z,82
2023-05-10T02:54:08.730Z,82
2023-05-10T02:55:08.392Z,82
2023-05-10T02:56:08.501Z,82
2023-05-10T02:57:08.856Z,82
2023-05-10T02:58:08.841Z,82
2023-05-10T03:05:08.249Z,82
2023-05-10T03:06:09.149Z,83
2023-05-10T03:07:08.235Z,83
2023-05-10T03:08:09.037Z,83
2023-05-10T03:12:08.351Z,83
2023-05-10T03:13:09.039Z,83
2023-05-10T03:15:09.187Z,83
2023-05-10T03:16:08.530Z,83
2023-05-10T03:20:08.142Z,83
2023-05-10T03:21:08.484Z,83
2023-05-10T03:22:08.383Z,83
2023-05-10T03:23:07.368Z,83
2023-05-10T03:24:08.636Z,84
2023-05-10T03:25:08.886Z,84
2023-05-10T03:28:08.560Z,84
2023-05-10T03:29:08.706Z,84
2023-05-10T03:30:08.968Z,84
2023-05-10T03:31:09.283Z,84
2023-05-10T03:32:09.073Z,84
2023-05-10T03:33:08.593Z,84
2023-05-10T03:34:08.835Z,84
2023-05-10T03:35:08.914Z,84
2023-05-10T03:36:08.481Z,84
2023-05-10T03:37:08.672Z,84
2023-05-10T03:38:09.079Z,84
2023-05-10T03:39:08.308Z,84
2023-05-10T03:40:08.561Z,84
2023-05-10T03:41:08.333Z,84
2023-05-10T03:42:08.743Z,84
2023-05-10T03:43:08.833Z,84
2023-05-10T03:48:08.990Z,84
2023-05-10T03:49:08.001Z,84
2023-05-10T03:50:09.074Z,84
2023-05-10T03:52:09.037Z,84
2023-05-10T03:53:08.306Z,84
2023-05-10T03:54:08.548Z,84
2023-05-10T03:55:07.626Z,84
2023-05-10T03:56:08.951Z,84
2023-05-10T03:57:08.887Z,84
2023-05-10T04:05:08.529Z,85
2023-05-10T04:06:08.892Z,85
2023-05-10T04:07:08.824Z,85
2023-05-10T04:08:08.990Z,85
2023-05-10T04:09:08.396Z,85
2023-05-10T04:10:08.831Z,85
2023-05-10T04:12:11.031Z,85
2023-05-10T04:14:09.082Z,85
2023-05-10T04:15:08.244Z,85
2023-05-10T04:16:07.370Z,85
2023-05-10T04:17:09.014Z,85
2023-05-10T04:18:11.079Z,85
2023-05-10T04:23:09.001Z,85
2023-05-10T04:24:08.334Z,85
2023-05-10T04:25:08.908Z,85
2023-05-10T04:26:08.591Z,85
2023-05-10T04:27:08.987Z,85
2023-05-10T04:28:07.979Z,86
2023-05-10T04:29:08.642Z,86
2023-05-10T04:32:08.128Z,86
2023-05-10T04:33:08.834Z,86
2023-05-10T04:34:08.882Z,86
2023-05-10T04:36:08.336Z,86
2023-05-10T04:37:08.661Z,86
2023-05-10T04:38:08.997Z,86
2023-05-10T04:39:09.008Z,86
2023-05-10T04:40:08.414Z,86
2023-05-10T04:41:08.837Z,86
2023-05-10T04:42:08.900Z,86
2023-05-10T04:43:08.065Z,86
2023-05-10T04:44:08.477Z,86
2023-05-10T04:45:08.811Z,86
2023-05-10T04:46:08.336Z,86
2023-05-10T04:47:09.930Z,86
2023-05-10T04:50:08.141Z,86
2023-05-10T04:51:07.592Z,86
2023-05-10T04:52:08.718Z,86
2023-05-10T04:53:08.599Z,86
2023-05-10T04:54:09.087Z,86
2023-05-10T04:56:08.647Z,86
2023-05-10T04:57:08.883Z,86
2023-05-10T04:58:08.433Z,86
2023-05-10T04:59:08.842Z,86
2023-05-10T05:00:08.983Z,86
2023-05-10T05:01:08.347Z,86
2023-05-10T05:02:09.018Z,86
2023-05-10T05:03:09.287Z,86
2023-05-10T05:04:08.104Z,86
2023-05-10T05:05:08.711Z,86
2023-05-10T05:06:08.929Z,86
2023-05-10T05:07:09.042Z,86
2023-05-10T05:08:08.405Z,86
2023-05-10T05:09:08.592Z,86
2023-05-10T05:10:08.885Z,86
2023-05-10T05:11:08.991Z,86
2023-05-10T05:12:07.870Z,86
2023-05-10T05:13:08.522Z,86
2023-05-10T05:14:08.581Z,86
2023-05-10T05:15:11.758Z,86
2023-05-10T05:16:08.617Z,86
2023-05-10T05:17:07.992Z,86
2023-05-10T05:18:09.499Z,86
2023-05-10T05:20:08.357Z,86
2023-05-10T05:21:08.801Z,86
2023-05-10T05:22:09.104Z,86
2023-05-10T05:23:08.242Z,86
2023-05-10T05:24:08.832Z,86
2023-05-10T05:25:09.044Z,86
2023-05-10T05:26:08.214Z,86
2023-05-10T05:27:08.453Z,86
2023-05-10T05:28:08.793Z,86
2023-05-10T05:29:08.615Z,86
2023-05-10T05:30:08.166Z,86
2023-05-10T05:31:08.966Z,86
2023-05-10T05:32:08.910Z,86
2023-05-10T05:33:09.006Z,86
2023-05-10T05:34:08.347Z,86
2023-05-10T05:35:08.641Z,86
2023-05-10T05:36:08.667Z,86
2023-05-10T05:39:08.145Z,86
2023-05-10T05:40:08.756Z,86
2023-05-10T05:41:08.925Z,86
2023-05-10T05:42:09.105Z,86
2023-05-10T05:43:08.451Z,86
2023-05-10T05:44:08.820Z,86
2023-05-10T05:45:09.086Z,86
2023-05-10T05:46:09.301Z,86
2023-05-10T05:47:07.516Z,86
2023-05-10T05:48:08.783Z,86
2023-05-10T05:49:08.845Z,86
2023-05-10T05:50:08.931Z,86
2023-05-10T05:51:11.398Z,86
2023-05-10T05:54:08.781Z,86
2023-05-10T05:55:08.887Z,86
2023-05-10T05:56:08.988Z,86
2023-05-10T05:57:07.989Z,86
2023-05-10T05:58:08.155Z,86
2023-05-10T06:01:08.958Z,86
2023-05-10T06:02:08.337Z,86
2023-05-10T06:03:08.884Z,86
2023-05-10T06:04:09.646Z,86
2023-05-10T06:05:08.347Z,86
2023-05-10T06:06:08.791Z,86
2023-05-10T06:07:09.111Z,86
2023-05-10T06:08:08.111Z,86
2023-05-10T06:09:08.479Z,86
2023-05-10T06:10:09.121Z,86
2023-05-10T06:11:08.598Z,86
2023-05-10T06:12:08.790Z,86
2023-05-10T06:13:09.295Z,86
2023-05-10T06:14:08.198Z,86
2023-05-10T06:15:08.549Z,86
2023-05-10T06:16:08.968Z,86
2023-05-10T06:17:09.365Z,86
2023-05-10T06:20:08.289Z,86
2023-05-10T06:21:09.159Z,86
2023-05-10T06:22:08.364Z,86
2023-05-10T06:23:08.810Z,86
2023-05-10T06:24:08.921Z,86
2023-05-10T06:25:08.289Z,86
2023-05-10T06:26:08.469Z,86
2023-05-10T06:27:08.884Z,86
2023-05-10T06:28:09.012Z,86
2023-05-10T06:29:09.152Z,86
2023-05-10T06:30:17.259Z,86
2023-05-10T06:32:09.005Z,86
2023-05-10T06:33:08.912Z,86
2023-05-10T06:37:08.280Z,86
2023-05-10T06:38:08.401Z,86
2023-05-10T06:39:08.349Z,86
2023-05-10T06:40:08.766Z,86
2023-05-10T06:41:08.888Z,86
2023-05-10T06:42:08.458Z,86
2023-05-10T06:43:07.200Z,86
2023-05-10T06:44:08.760Z,86
2023-05-10T06:45:08.857Z,86
2023-05-10T06:46:09.096Z,86
2023-05-10T06:47:08.285Z,86
2023-05-10T06:48:08.996Z,86
2023-05-10T06:49:08.779Z,86
2023-05-10T06:52:07.216Z,86
2023-05-10T06:53:09.022Z,86
2023-05-10T06:54:08.235Z,86
2023-05-10T06:55:08.371Z,86
2023-05-10T06:56:08.874Z,86
2023-05-10T06:57:31.530Z,86
2023-05-10T06:59:08.909Z,86
2023-05-10T07:00:08.409Z,86
2023-05-10T07:01:08.808Z,86
2023-05-10T07:02:08.414Z,86
2023-05-10T07:03:08.535Z,86
2023-05-10T07:04:09.153Z,86
2023-05-10T07:05:08.303Z,86
2023-05-10T07:06:13.383Z,86
2023-05-10T07:08:08.586Z,86
2023-05-10T07:09:09.184Z,86
2023-05-10T07:10:08.676Z,86
2023-05-10T07:11:08.762Z,86
2023-05-10T07:12:11.662Z,86
2023-05-10T07:13:09.071Z,86
2023-05-10T07:14:08.303Z,86
2023-05-10T07:15:08.398Z,86
2023-05-10T07:16:08.883Z,86
2023-05-10T07:17:09.045Z,86
2023-05-10T07:18:09.619Z,86
2023-05-10T07:19:08.229Z,86
2023-05-10T07:20:08.546Z,86
2023-05-10T07:21:09.125Z,86
2023-05-10T07:22:08.128Z,86
2023-05-10T07:23:08.435Z,86
2023-05-10T07:24:08.843Z,86
2023-05-10T07:25:09.002Z,86
2023-05-10T07:26:08.268Z,86
2023-05-10T07:27:08.949Z,86
2023-05-10T07:30:08.771Z,86
2023-05-10T07:31:09.039Z,86
2023-05-10T07:32:08.292Z,86
2023-05-10T07:33:08.364Z,86
2023-05-10T07:34:08.910Z,86
2023-05-10T07:35:08.064Z,86
2023-05-10T07:40:08.256Z,86
2023-05-10T07:41:08.857Z,86
2023-05-10T07:42:08.820Z,86
2023-05-10T07:43:09.029Z,86
2023-05-10T07:44:08.080Z,86
2023-05-10T07:45:08.749Z,86
2023-05-10T07:46:08.389Z,86
2023-05-10T07:47:08.479Z,86
2023-05-10T07:48:08.626Z,86
2023-05-10T07:49:08.770Z,86
2023-05-10T07:50:08.962Z,86
2023-05-10T07:51:08.247Z,86
2023-05-10T07:52:08.428Z,86
2023-05-10T07:53:09.170Z,86
2023-05-10T07:54:08.444Z,86
2023-05-10T07:55:08.920Z,86
2023-05-10T07:56:08.701Z,86
2023-05-10T07:57:08.722Z,85
2023-05-10T07:58:08.999Z,85
2023-05-10T07:59:10.163Z,86
2023-05-10T08:00:08.741Z,85
2023-05-10T08:01:08.341Z,85
2023-05-10T08:02:08.699Z,85
2023-05-10T08:05:08.423Z,85
2023-05-10T08:06:08.308Z,85
2023-05-10T08:07:08.485Z,85
2023-05-10T08:12:08.204Z,85
2023-05-10T08:13:08.427Z,85
2023-05-10T08:14:08.703Z,85
2023-05-10T08:15:09.102Z,85
2023-05-10T08:16:08.923Z,85
2023-05-10T08:17:08.303Z,85
2023-05-10T08:18:09.189Z,85
2023-05-10T08:19:08.656Z,85
2023-05-10T08:22:08.651Z,85
2023-05-10T08:23:08.932Z,85
2023-05-10T08:24:08.201Z,85
2023-05-10T08:25:08.228Z,85
2023-05-10T08:26:08.145Z,85
2023-05-10T08:27:08.873Z,85
2023-05-10T08:28:09.260Z,85
2023-05-10T08:29:08.454Z,85
2023-05-10T08:30:08.855Z,85
2023-05-10T08:31:09.092Z,85
2023-05-10T08:33:08.447Z,85
2023-05-10T08:34:08.841Z,85
2023-05-10T08:35:09.080Z,84
2023-05-10T08:36:08.491Z,84
2023-05-10T08:37:09.074Z,84
2023-05-10T08:38:08.391Z,84
2023-05-10T08:39:23.280Z,84
2023-05-10T08:41:09.286Z,85
2023-05-10T08:42:08.252Z,85
2023-05-10T08:43:08.437Z,85
2023-05-10T08:44:08.595Z,85
2023-05-10T08:45:08.945Z,84
2023-05-10T08:46:09.281Z,84
2023-05-10T08:47:08.488Z,84
2023-05-10T08:48:08.590Z,84
2023-05-10T08:49:08.849Z,83
2023-05-10T08:50:08.549Z,83
2023-05-10T08:51:08.912Z,83
2023-05-10T08:52:08.282Z,83
2023-05-10T08:53:08.461Z,83
2023-05-10T08:54:08.600Z,83
2023-05-10T08:55:08.128Z,83
2023-05-10T08:56:08.305Z,83
2023-05-10T08:57:08.386Z,83
2023-05-10T08:58:09.114Z,83
2023-05-10T09:02:08.298Z,82
2023-05-10T09:03:08.659Z,82
2023-05-10T09:04:09.214Z,81
2023-05-10T09:05:09.293Z,81
2023-05-10T09:06:08.207Z,81
2023-05-10T09:07:08.755Z,81
2023-05-10T09:09:08.114Z,81
2023-05-10T09:10:08.560Z,80
2023-05-10T09:11:08.926Z,80
2023-05-10T09:12:08.275Z,80
2023-05-10T09:13:08.298Z,80
2023-05-10T09:14:08.930Z,80
2023-05-10T09:15:08.871Z,79
2023-05-10T09:16:24.968Z,79
2023-05-10T09:18:09.041Z,79
2023-05-10T09:19:09.283Z,79
2023-05-10T09:20:08.235Z,79
2023-05-10T09:21:08.044Z,78
2023-05-10T09:22:08.349Z,78
2023-05-10T09:23:08.264Z,78
2023-05-10T09:24:08.817Z,77
2023-05-10T09:25:08.947Z,77
2023-05-10T09:30:08.227Z,77
2023-05-10T09:31:08.887Z,77
2023-05-10T09:32:09.070Z,78
2023-05-10T09:33:08.174Z,77
2023-05-10T09:37:08.279Z,78
2023-05-10T09:38:08.769Z,78
2023-05-10T09:39:08.951Z,78
2023-05-10T09:40:08.150Z,78
2023-05-10T09:41:08.339Z,77
2023-05-10T09:42:08.756Z,77
2023-05-10T09:43:08.811Z,77
2023-05-10T09:44:08.249Z,77
2023-05-10T09:45:08.401Z,77
2023-05-10T09:46:08.807Z,77
2023-05-10T09:47:09.043Z,77
2023-05-10T09:48:08.456Z,78
2023-05-10T09:49:08.473Z,78
2023-05-10T09:51:08.797Z,78
2023-05-10T09:52:09.336Z,78
2023-05-10T09:53:08.405Z,78
2023-05-10T09:54:08.541Z,78
2023-05-10T09:55:08.450Z,78
2023-05-10T09:56:09.117Z,78
2023-05-10T09:57:08.193Z,78
2023-05-10T09:58:08.616Z,78
2023-05-10T09:59:08.954Z,78
2023-05-10T10:00:08.140Z,78
2023-05-10T10:01:08.500Z,79
2023-05-10T10:02:09.162Z,78
2023-05-10T10:03:09.227Z,78
2023-05-10T10:06:15.938Z,77
2023-05-10T10:07:08.913Z,77
2023-05-10T10:08:09.007Z,77
2023-05-10T10:09:08.977Z,77
2023-05-10T10:14:08.235Z,76
2023-05-10T10:15:08.469Z,76
2023-05-10T10:16:09.078Z,76
2023-05-10T10:17:14.352Z,76
2023-05-10T10:20:09.322Z,76
2023-05-10T10:21:08.313Z,76
2023-05-10T10:22:08.845Z,76
2023-05-10T10:23:08.821Z,76
2023-05-10T10:24:09.138Z,76
2023-05-10T10:25:08.593Z,76
2023-05-10T10:26:08.571Z,76
2023-05-10T10:27:08.745Z,76
2023-05-10T10:28:08.950Z,77
2023-05-10T10:32:08.563Z,77
2023-05-10T10:33:30.993Z,77
2023-05-10T10:34:08.716Z,77
2023-05-10T10:35:08.920Z,77
2023-05-10T10:36:09.131Z,78
2023-05-10T10:37:08.167Z,78
2023-05-10T10:38:08.438Z,78
2023-05-10T10:39:08.818Z,78
2023-05-10T10:40:08.797Z,78
2023-05-10T10:43:08.327Z,78
2023-05-10T10:44:08.637Z,78
2023-05-10T10:46:08.219Z,78
2023-05-10T10:47:08.825Z,78
2023-05-10T10:48:09.169Z,78
2023-05-10T10:49:08.166Z,78
2023-05-10T10:50:08.745Z,78
2023-05-10T10:51:10.110Z,78
2023-05-10T10:52:08.938Z,78
2023-05-10T10:53:08.845Z,78
2023-05-10T10:55:08.339Z,78
2023-05-10T10:58:08.980Z,78
2023-05-10T10:59:09.182Z,78
2023-05-10T11:00:08.314Z,78
2023-05-10T11:01:08.817Z,77
2023-05-10T11:02:08.934Z,77
2023-05-10T11:03:09.305Z,77
2023-05-10T11:04:08.559Z,77
2023-05-10T11:05:08.796Z,77
2023-05-10T11:06:08.923Z,77
2023-05-10T11:07:09.091Z,77
2023-05-10T11:08:08.217Z,77
2023-05-10T11:09:08.287Z,77
2023-05-10T11:10:07.980Z,77
2023-05-10T11:11:08.343Z,77
2023-05-10T11:12:08.525Z,77
2023-05-10T11:16:08.876Z,77
2023-05-10T11:17:09.085Z,77
2023-05-10T11:18:08.312Z,77
2023-05-10T11:19:09.003Z,77
2023-05-10T11:22:08.336Z,77
2023-05-10T11:23:08.547Z,77
2023-05-10T11:24:09.301Z,77
2023-05-10T11:26:08.663Z,76
2023-05-10T11:27:09.073Z,76
2023-05-10T11:28:08.139Z,76
2023-05-10T11:29:08.399Z,76
2023-05-10T11:30:09.405Z,76
2023-05-10T11:31:08.821Z,76
2023-05-10T11:35:08.667Z,75
2023-05-10T11:36:08.446Z,75
2023-05-10T11:37:07.394Z,75
2023-05-10T11:38:08.596Z,74
2023-05-10T11:39:08.815Z,74
2023-05-10T11:40:09.210Z,74
2023-05-10T11:41:08.767Z,74
2023-05-10T11:42:09.015Z,73
2023-05-10T11:43:08.238Z,73
2023-05-10T11:44:08.262Z,73
2023-05-10T11:48:08.703Z,72
2023-05-10T11:49:08.812Z,72
2023-05-10T11:50:08.948Z,72
2023-05-10T11:51:08.277Z,72
2023-05-10T11:52:08.417Z,71
2023-05-10T11:53:08.807Z,71
2023-05-10T11:54:08.052Z,71
2023-05-10T11:55:08.265Z,70
2023-05-10T11:56:08.501Z,70
2023-05-10T11:57:08.572Z,70
2023-05-10T11:58:08.899Z,70
2023-05-10T11:59:09.169Z,70
2023-05-10T12:00:08.288Z,70
2023-05-10T12:01:08.518Z,70
2023-05-10T12:02:09.008Z,70
2023-05-10T12:03:09.186Z,70
2023-05-10T12:04:08.502Z,70
2023-05-10T12:05:08.838Z,70
2023-05-10T12:06:08.908Z,69
2023-05-10T12:07:09.118Z,69
2023-05-10T12:12:09.137Z,68
2023-05-10T12:13:08.253Z,68
2023-05-10T12:14:08.499Z,68
2023-05-10T12:15:08.539Z,67
2023-05-10T12:16:09.097Z,67
2023-05-10T12:17:08.177Z,66
2023-05-10T12:18:08.422Z,66
2023-05-10T12:19:09.118Z,66
2023-05-10T12:20:08.456Z,66
2023-05-10T12:21:07.320Z,67
2023-05-10T12:22:08.437Z,67
2023-05-10T12:23:08.521Z,67
2023-05-10T12:24:08.875Z,67
2023-05-10T12:32:08.364Z,66
2023-05-10T12:33:08.811Z,66
2023-05-10T12:35:09.023Z,66
2023-05-10T12:36:08.322Z,66
2023-05-10T12:37:08.738Z,66
2023-05-10T12:38:08.823Z,66
2023-05-10T12:39:09.023Z,66
2023-05-10T12:40:08.486Z,66
2023-05-10T12:41:08.154Z,66
2023-05-10T12:42:08.930Z,66
2023-05-10T12:43:08.233Z,66
2023-05-10T12:46:09.382Z,67
2023-05-10T12:47:08.379Z,67
2023-05-10T12:48:08.939Z,67
2023-05-10T12:49:15.878Z,67
2023-05-10T12:51:08.716Z,68
2023-05-10T12:52:09.020Z,68
2023-05-10T12:54:08.311Z,68
2023-05-10T12:55:08.503Z,68
2023-05-10T12:56:08.782Z,68
2023-05-10T12:57:08.949Z,68
2023-05-10T12:58:08.237Z,68
2023-05-10T12:59:08.743Z,68
2023-05-10T13:00:09.075Z,68
2023-05-10T13:01:08.704Z,68
2023-05-10T13:02:08.814Z,68
2023-05-10T13:03:09.331Z,68
2023-05-10T13:04:08.490Z,68
2023-05-10T13:05:07.827Z,68
2023-05-10T13:06:08.560Z,69
2023-05-10T13:07:09.005Z,69
2023-05-10T13:08:08.090Z,69
2023-05-10T13:09:08.456Z,70
2023-05-10T13:12:11.527Z,70
2023-05-10T13:13:08.244Z,70
2023-05-10T13:14:08.225Z,70
2023-05-10T13:15:08.839Z,70
2023-05-10T13:16:08.160Z,71
2023-05-10T13:17:09.043Z,71
2023-05-10T13:18:09.197Z,71
2023-05-10T13:19:09.268Z,71
2023-05-10T13:22:08.616Z,71
2023-05-10T13:23:08.701Z,71
2023-05-10T13:24:08.365Z,71
2023-05-10T13:25:08.459Z,71
2023-05-10T13:26:08.494Z,71
2023-05-10T13:27:08.793Z,71
2023-05-10T13:28:08.906Z,71
2023-05-10T13:29:08.290Z,71
2023-05-10T13:30:09.134Z,72
2023-05-10T13:31:08.348Z,72
2023-05-10T13:32:08.524Z,72
2023-05-10T13:33:08.994Z,72
2023-05-10T13:34:07.877Z,72
2023-05-10T13:35:08.400Z,72
2023-05-10T13:36:08.472Z,72
2023-05-10T13:37:08.839Z,72
2023-05-10T13:38:09.121Z,72
2023-05-10T13:39:08.953Z,73
2023-05-10T13:41:08.850Z,73
2023-05-10T13:42:09.083Z,73
2023-05-10T13:43:08.633Z,73
2023-05-10T13:44:08.846Z,73
2023-05-10T13:45:09.183Z,73
2023-05-10T13:46:09.193Z,73
2023-05-10T13:47:08.227Z,73
2023-05-10T13:48:08.916Z,74
2023-05-10T13:51:08.320Z,75
2023-05-10T13:52:07.742Z,76
2023-05-10T13:53:09.140Z,76
2023-05-10T13:54:08.295Z,76
2023-05-10T13:55:07.375Z,76
2023-05-10T13:56:08.661Z,76
2023-05-10T13:57:08.616Z,76
2023-05-10T13:58:08.131Z,77
2023-05-10T13:59:08.356Z,77
2023-05-10T14:00:08.825Z,77
2023-05-10T14:01:08.489Z,77
2023-05-10T14:02:08.816Z,77
2023-05-10T14:03:09.224Z,77
2023-05-10T14:06:08.598Z,79
2023-05-10T14:07:08.958Z,79
2023-05-10T14:08:08.237Z,80
2023-05-10T14:09:08.373Z,80
2023-05-10T14:10:08.577Z,81
2023-05-10T14:11:08.489Z,81
2023-05-10T14:12:07.928Z,82
2023-05-10T14:15:07.902Z,82
2023-05-10T14:16:09.396Z,82
2023-05-10T14:17:10.777Z,83
2023-05-10T14:18:08.397Z,83
2023-05-10T14:19:09.389Z,83
2023-05-10T14:20:08.934Z,83
2023-05-10T14:21:08.263Z,83
2023-05-10T14:22:08.458Z,83
2023-05-10T14:23:11.228Z,83
2023-05-10T14:24:08.958Z,84
2023-05-10T14:26:08.802Z,84
2023-05-10T14:28:08.549Z,84
2023-05-10T14:29:10.736Z,84
2023-05-10T14:30:09.175Z,84
2023-05-10T14:34:09.044Z,85
2023-05-10T14:35:08.973Z,85
2023-05-10T14:36:07.593Z,85
2023-05-10T14:37:08.635Z,85
2023-05-10T14:38:08.800Z,85
2023-05-10T14:39:09.100Z,85
2023-05-10T14:40:08.837Z,85
2023-05-10T14:44:08.491Z,85
2023-05-10T14:45:09.064Z,86
2023-05-10T14:46:09.095Z,86
2023-05-10T14:47:08.948Z,86
2023-05-10T14:48:08.754Z,86
2023-05-10T14:50:08.912Z,86
2023-05-10T14:51:08.966Z,86
2023-05-10T14:52:08.377Z,86
2023-05-10T14:53:08.639Z,86
2023-05-10T14:55:08.223Z,86
2023-05-10T14:56:08.477Z,86
2023-05-10T14:57:08.521Z,86
2023-05-10T14:58:08.815Z,86
2023-05-10T14:59:09.004Z,86
2023-05-10T15:00:09.100Z,86
2023-05-10T15:01:10.372Z,86
2023-05-10T15:02:09.196Z,86
2023-05-10T15:03:10.419Z,86
2023-05-10T15:05:10.503Z,87
2023-05-10T15:06:08.634Z,87
2023-05-10T15:07:08.826Z,87
2023-05-10T15:08:09.110Z,87
2023-05-10T15:09:08.206Z,87
2023-05-10T15:10:08.560Z,87
2023-05-10T15:11:08.859Z,87
2023-05-10T15:12:09.157Z,87
2023-05-10T15:13:08.475Z,87
2023-05-10T15:14:08.694Z,87
2023-05-10T15:15:08.927Z,87
2023-05-10T15:16:08.298Z,87
2023-05-10T15:17:08.586Z,87
2023-05-10T15:18:09.076Z,87
2023-05-10T15:20:07.994Z,87
2023-05-10T15:21:08.989Z,87
2023-05-10T15:22:08.099Z,87
2023-05-10T15:23:07.711Z,87
2023-05-10T15:24:09.124Z,87
2023-05-10T15:25:08.090Z,87
2023-05-10T15:26:08.620Z,87
2023-05-10T15:27:08.844Z,87
2023-05-10T15:28:09.114Z,87
2023-05-10T15:29:08.336Z,87
2023-05-10T15:30:08.827Z,87
2023-05-10T15:31:09.112Z,88
2023-05-10T15:32:08.370Z,88
2023-05-10T15:33:08.887Z,88
2023-05-10T15:40:08.674Z,88
2023-05-10T15:41:08.877Z,88
2023-05-10T15:42:09.141Z,88
2023-05-10T15:43:08.490Z,88
2023-05-10T15:44:08.496Z,88
2023-05-10T15:45:08.949Z,88
2023-05-10T15:46:09.201Z,88
2023-05-10T15:47:07.435Z,88
2023-05-10T15:48:08.324Z,88
2023-05-10T15:49:08.543Z,88
2023-05-10T15:50:09.067Z,88
2023-05-10T15:51:08.407Z,88
2023-05-10T15:52:08.559Z,88
2023-05-10T15:53:09.183Z,88
2023-05-10T15:54:10.182Z,88
2023-05-10T15:57:08.853Z,88
2023-05-10T15:58:08.182Z,88
2023-05-10T15:59:08.610Z,88
2023-05-10T16:00:08.785Z,88
2023-05-10T16:01:08.605Z,88
2023-05-10T16:02:08.849Z,88
2023-05-10T16:03:09.268Z,88
2023-05-10T16:04:08.007Z,88
2023-05-10T16:05:08.782Z,88
2023-05-10T16:06:08.886Z,88
2023-05-10T16:07:07.876Z,88
2023-05-10T16:08:08.904Z,88
2023-05-10T16:11:08.490Z,88
2023-05-10T16:12:08.820Z,88
2023-05-10T16:13:09.243Z,88
2023-05-10T16:14:10.953Z,88
2023-05-10T16:18:08.453Z,88
2023-05-10T16:19:08.635Z,88
2023-05-10T16:20:08.896Z,88
2023-05-10T16:21:08.951Z,88
2023-05-10T16:22:08.243Z,88
2023-05-10T16:23:08.427Z,88
2023-05-10T16:24:08.935Z,88
2023-05-10T16:25:08.191Z,88
2023-05-10T16:26:08.443Z,88
2023-05-10T16:27:08.372Z,88
2023-05-10T16:28:08.670Z,88
2023-05-10T16:29:09.121Z,88
2023-05-10T16:30:08.171Z,88
2023-05-10T16:33:09.265Z,88
2023-05-10T16:34:08.214Z,88
2023-05-10T16:35:08.321Z,88
2023-05-10T16:37:08.360Z,88
2023-05-10T16:38:08.449Z,88
2023-05-10T16:39:08.653Z,88
2023-05-10T16:40:08.921Z,88
2023-05-10T16:41:09.106Z,88
2023-05-10T16:42:08.937Z,88
2023-05-10T16:43:08.329Z,88
2023-05-10T16:44:08.814Z,88
2023-05-10T16:47:08.373Z,88
2023-05-10T16:48:08.596Z,88
2023-05-10T16:50:09.154Z,88
2023-05-10T16:51:08.370Z,88
2023-05-10T16:52:08.765Z,88
2023-05-10T16:53:08.770Z,88
2023-05-10T16:54:08.807Z,88
2023-05-10T16:55:09.128Z,88
2023-05-10T16:56:08.761Z,88
2023-05-10T16:57:09.006Z,88
2023-05-10T16:58:08.303Z,88
2023-05-10T16:59:08.564Z,88
2023-05-10T17:00:08.834Z,88
2023-05-10T17:01:08.285Z,88
2023-05-10T17:02:08.783Z,88
2023-05-10T17:03:09.274Z,88
2023-05-10T17:06:08.815Z,88
2023-05-10T17:07:09.052Z,88
2023-05-10T17:08:08.242Z,88
2023-05-10T17:09:08.576Z,88
2023-05-10T17:10:08.974Z,88
2023-05-10T17:11:08.562Z,88
2023-05-10T17:12:08.617Z,88
2023-05-10T17:13:10.872Z,88
2023-05-10T17:14:08.333Z,88
2023-05-10T17:15:07.488Z,88
2023-05-10T17:16:09.212Z,88
2023-05-10T17:17:08.963Z,88
2023-05-10T17:21:08.204Z,88
2023-05-10T17:25:08.330Z,88
2023-05-10T17:26:08.349Z,88
2023-05-10T17:27:08.765Z,88
2023-05-10T17:28:08.973Z,88
2023-05-10T17:29:08.294Z,88
2023-05-10T17:30:08.603Z,88
2023-05-10T17:33:08.488Z,88
2023-05-10T17:34:11.788Z,88
2023-05-10T17:35:08.769Z,88
2023-05-10T17:40:08.997Z,88
2023-05-10T17:41:08.298Z,88
2023-05-10T17:42:08.473Z,88
2023-05-10T17:43:08.810Z,89
2023-05-10T17:44:08.200Z,89
2023-05-10T17:45:08.558Z,89
2023-05-10T17:46:08.874Z,89
2023-05-10T17:50:09.024Z,89
2023-05-10T17:51:08.448Z,89
2023-05-10T17:52:08.615Z,89
2023-05-10T17:53:08.777Z,89
2023-05-10T17:54:09.000Z,89
2023-05-10T17:55:08.322Z,89
2023-05-10T17:56:08.470Z,89
2023-05-10T17:57:08.719Z,89
2023-05-10T17:58:08.728Z,89
2023-05-10T17:59:08.192Z,89
2023-05-10T18:00:08.780Z,89
2023-05-10T18:01:08.556Z,89
2023-05-10T18:02:08.771Z,89